createdAt,value
2023-05-05T00:01:03.404Z,58.46
2023-05-05T00:03:33.596Z,57.37
2023-05-05T00:06:01.798Z,57.41
2023-05-05T00:08:30.292Z,58.27
2023-05-05T00:10:58.451Z,58.95
2023-05-05T00:13:26.827Z,60.01
2023-05-05T00:15:55.416Z,62.50
2023-05-05T00:18:23.615Z,64.46
2023-05-05T00:20:51.853Z,64.86
2023-05-05T00:23:20.651Z,64.56
2023-05-05T00:25:48.814Z,64.65
2023-05-05T00:28:17.411Z,64.56
2023-05-05T00:30:45.672Z,63.84
2023-05-05T00:33:13.862Z,63.04
2023-05-05T00:35:42.545Z,62.53
2023-05-05T00:38:10.712Z,62.19
2023-05-05T00:40:38.983Z,62.01
2023-05-05T00:43:07.869Z,62.03
2023-05-05T00:45:37.573Z,61.84
2023-05-05T00:48:06.404Z,61.95
2023-05-05T00:50:35.356Z,61.90
2023-05-05T00:53:06.114Z,61.96
2023-05-05T00:55:35.609Z,61.75
2023-05-05T00:58:06.837Z,61.79
2023-05-05T01:00:35.315Z,61.74
2023-05-05T01:03:03.635Z,61.48
2023-05-05T01:05:50.397Z,61.08
2023-05-05T01:08:40.795Z,60.67
2023-05-05T01:11:31.798Z,60.79
2023-05-05T01:14:19.628Z,60.75
2023-05-05T01:16:59.579Z,60.80
2023-05-05T01:20:12.499Z,60.79
2023-05-05T01:22:47.717Z,60.95
2023-05-05T01:25:37.312Z,60.58
2023-05-05T01:28:50.954Z,60.58
2023-05-05T01:31:37.502Z,60.72
2023-05-05T01:34:09.208Z,60.50
2023-05-05T01:36:40.141Z,60.54
2023-05-05T01:39:11.490Z,60.49
2023-05-05T01:41:48.461Z,60.55
2023-05-05T01:44:19.180Z,60.75
2023-05-05T01:46:49.110Z,60.85
2023-05-05T01:49:17.325Z,60.93
2023-05-05T01:51:46.713Z,61.05
2023-05-05T01:54:15.670Z,61.05
2023-05-05T01:56:43.952Z,61.13
2023-05-05T01:59:13.146Z,61.13
2023-05-05T02:01:44.890Z,61.19
2023-05-05T02:04:14.627Z,61.08
2023-05-05T02:06:44.114Z,61.42
2023-05-05T02:09:13.416Z,61.38
2023-05-05T02:11:41.789Z,61.61
2023-05-05T02:14:10.988Z,61.62
2023-05-05T02:16:41.434Z,61.59
2023-05-05T02:19:10.215Z,61.77
2023-05-05T02:21:38.479Z,61.91
2023-05-05T02:24:08.600Z,61.59
2023-05-05T02:26:40.154Z,61.55
2023-05-05T02:29:12.176Z,61.55
2023-05-05T02:31:45.217Z,61.36
2023-05-05T02:34:16.856Z,61.39
2023-05-05T02:36:45.327Z,61.44
2023-05-05T02:39:32.136Z,61.58
2023-05-05T02:42:03.567Z,61.56
2023-05-05T02:44:33.304Z,61.60
2023-05-05T02:47:03.996Z,61.56
2023-05-05T02:49:33.220Z,61.63
2023-05-05T02:52:01.803Z,61.87
2023-05-05T02:54:33.976Z,61.89
2023-05-05T02:57:04.194Z,61.87
2023-05-05T02:59:51.205Z,62.27
2023-05-05T03:02:27.445Z,62.06
2023-05-05T03:05:15.811Z,61.99
2023-05-05T03:07:51.866Z,62.04
2023-05-05T03:10:22.195Z,62.04
2023-05-05T03:12:58.170Z,62.04
2023-05-05T03:15:36.961Z,62.03
2023-05-05T03:18:06.680Z,62.18
2023-05-05T03:20:35.562Z,62.03
2023-05-05T03:23:08.034Z,62.36
2023-05-05T03:25:43.657Z,62.30
2023-05-05T03:28:12.775Z,62.28
2023-05-05T03:30:42.176Z,62.21
2023-05-05T03:33:11.683Z,62.13
2023-05-05T03:35:40.673Z,62.17
2023-05-05T03:38:10.175Z,61.98
2023-05-05T03:40:44.134Z,61.98
2023-05-05T03:43:13.597Z,61.89
2023-05-05T03:45:41.821Z,61.78
2023-05-05T03:48:10.231Z,61.76
2023-05-05T03:50:39.640Z,61.87
2023-05-05T03:53:08.221Z,61.95
2023-05-05T03:55:36.390Z,61.86
2023-05-05T03:58:04.568Z,61.83
2023-05-05T04:00:33.563Z,61.73
2023-05-05T04:03:02.236Z,61.69
2023-05-05T04:05:30.827Z,61.87
2023-05-05T04:07:59.118Z,61.80
2023-05-05T04:10:27.581Z,61.82
2023-05-05T04:12:55.794Z,62.11
2023-05-05T04:15:24.229Z,62.26
2023-05-05T04:17:52.533Z,62.50
2023-05-05T04:20:20.783Z,62.56
2023-05-05T04:22:50.195Z,62.70
2023-05-05T04:25:20.097Z,62.85
2023-05-05T04:27:48.888Z,62.75
2023-05-05T04:30:17.485Z,62.94
2023-05-05T04:32:47.197Z,62.94
2023-05-05T04:35:15.856Z,62.89
2023-05-05T04:37:44.336Z,62.80
2023-05-05T04:40:13.331Z,62.54
2023-05-05T04:42:41.804Z,62.72
2023-05-05T04:45:11.208Z,62.85
2023-05-05T04:47:40.650Z,62.39
2023-05-05T04:50:09.934Z,61.93
2023-05-05T04:52:38.293Z,61.65
2023-05-05T04:55:07.240Z,61.13
2023-05-05T04:57:35.661Z,60.88
2023-05-05T05:00:05.589Z,60.78
2023-05-05T05:02:34.030Z,60.67
2023-05-05T05:05:02.836Z,60.72
2023-05-05T05:07:31.212Z,58.67
2023-05-05T05:09:59.599Z,56.93
2023-05-05T05:12:27.726Z,57.58
2023-05-05T05:14:56.133Z,58.15
2023-05-05T05:17:25.114Z,58.59
2023-05-05T05:19:55.341Z,59.18
2023-05-05T05:33:06.988Z,60.72
2023-05-05T05:35:36.026Z,60.84
2023-05-05T05:38:05.322Z,60.62
2023-05-05T05:40:33.609Z,60.15
2023-05-05T05:43:03.131Z,58.61
2023-05-05T05:45:31.781Z,57.16
2023-05-05T05:47:59.927Z,57.09
2023-05-05T05:50:28.859Z,57.71
2023-05-05T05:52:57.561Z,58.29
2023-05-05T05:55:26.212Z,58.81
2023-05-05T05:57:55.006Z,58.97
2023-05-05T06:00:23.483Z,59.78
2023-05-05T06:02:56.355Z,60.21
2023-05-05T06:05:27.098Z,62.25
2023-05-05T06:07:55.878Z,63.56
2023-05-05T06:10:30.324Z,62.71
2023-05-05T06:13:02.828Z,60.88
2023-05-05T06:15:31.666Z,58.99
2023-05-05T06:18:00.794Z,57.12
2023-05-05T06:20:29.154Z,56.97
2023-05-05T06:22:57.712Z,58.10
2023-05-05T06:25:27.013Z,57.84
2023-05-05T06:27:55.388Z,57.94
2023-05-05T06:30:23.562Z,59.01
2023-05-05T06:32:52.277Z,59.37
2023-05-05T06:35:21.028Z,59.35
2023-05-05T06:37:49.107Z,59.15
2023-05-05T06:40:17.482Z,58.76
2023-05-05T06:42:45.856Z,59.02
2023-05-05T06:45:17.716Z,59.57
2023-05-05T06:47:46.119Z,59.19
2023-05-05T06:50:14.269Z,58.85
2023-05-05T06:52:42.758Z,58.88
2023-05-05T06:55:10.918Z,58.47
2023-05-05T06:57:39.095Z,58.53
2023-05-05T07:00:11.524Z,58.91
2023-05-05T07:02:40.238Z,58.51
2023-05-05T07:05:08.936Z,58.10
2023-05-05T07:07:38.456Z,57.72
2023-05-05T07:10:07.913Z,57.84
2023-05-05T07:12:36.252Z,56.56
2023-05-05T07:15:15.505Z,56.46
2023-05-05T07:17:47.641Z,55.96
2023-05-05T07:20:16.401Z,56.34
2023-05-05T07:22:44.572Z,56.89
2023-05-05T07:25:12.749Z,56.82
2023-05-05T07:27:41.119Z,56.49
2023-05-05T07:30:12.585Z,56.30
2023-05-05T07:32:41.630Z,55.61
2023-05-05T07:35:10.130Z,55.89
2023-05-05T07:37:38.316Z,55.66
2023-05-05T07:40:07.591Z,55.30
2023-05-05T07:42:36.116Z,55.08
2023-05-05T07:45:05.380Z,55.62
2023-05-05T07:47:33.632Z,53.92
2023-05-05T07:50:02.256Z,53.79
2023-05-05T07:52:44.999Z,53.19
2023-05-05T07:55:16.614Z,52.66
2023-05-05T07:57:44.789Z,53.00
2023-05-05T08:00:13.791Z,52.44
2023-05-05T08:02:42.035Z,51.71
2023-05-05T08:05:11.480Z,51.93
2023-05-05T08:07:41.746Z,52.14
2023-05-05T08:10:13.224Z,51.78
2023-05-05T08:12:41.333Z,51.41
2023-05-05T08:15:10.412Z,50.86
2023-05-05T08:17:49.664Z,49.87
2023-05-05T08:20:19.720Z,49.32
2023-05-05T08:22:48.453Z,49.54
2023-05-05T08:25:16.598Z,49.88
2023-05-05T08:27:44.885Z,50.02
2023-05-05T08:30:13.528Z,50.38
2023-05-05T08:32:41.881Z,50.20
2023-05-05T08:35:10.760Z,50.29
2023-05-05T08:37:39.208Z,48.15
2023-05-05T08:40:08.085Z,47.07
2023-05-05T08:42:38.558Z,46.85
2023-05-05T08:45:09.017Z,47.60
2023-05-05T08:47:38.182Z,47.71
2023-05-05T08:50:07.821Z,46.94
2023-05-05T08:52:42.056Z,46.55
2023-05-05T08:55:24.500Z,44.92
2023-05-05T08:57:56.089Z,44.62
2023-05-05T09:00:26.673Z,43.89
2023-05-05T09:02:57.841Z,44.52
2023-05-05T09:05:26.903Z,43.51
2023-05-05T09:07:55.456Z,43.00
2023-05-05T09:10:25.268Z,43.27
2023-05-05T09:12:53.511Z,42.84
2023-05-05T09:15:21.745Z,42.65
2023-05-05T09:17:50.028Z,42.19
2023-05-05T09:20:18.376Z,42.20
2023-05-05T09:22:47.766Z,41.77
2023-05-05T09:25:17.745Z,41.81
2023-05-05T09:27:46.778Z,41.37
2023-05-05T09:30:23.760Z,41.52
2023-05-05T09:32:55.896Z,41.45
2023-05-05T09:35:24.196Z,41.21
2023-05-05T09:37:52.379Z,41.11
2023-05-05T09:40:21.549Z,40.99
2023-05-05T09:43:01.326Z,41.76
2023-05-05T09:45:29.903Z,41.06
2023-05-05T09:48:00.268Z,40.36
2023-05-05T09:50:30.964Z,40.70
2023-05-05T09:53:03.757Z,40.36
2023-05-05T09:55:32.167Z,39.67
2023-05-05T09:58:26.456Z,37.64
2023-05-05T10:00:56.201Z,37.46
2023-05-05T10:03:24.774Z,37.88
2023-05-05T10:05:57.759Z,37.99
2023-05-05T10:08:28.285Z,37.93
2023-05-05T10:11:07.232Z,37.66
2023-05-05T10:13:41.200Z,37.10
2023-05-05T10:16:09.955Z,36.59
2023-05-05T10:18:40.478Z,35.62
2023-05-05T10:21:09.421Z,35.07
2023-05-05T10:23:55.924Z,34.39
2023-05-05T10:26:26.456Z,32.66
2023-05-05T10:29:01.788Z,32.46
2023-05-05T10:31:37.788Z,32.11
2023-05-05T10:34:10.463Z,32.51
2023-05-05T10:36:39.728Z,31.25
2023-05-05T10:39:09.540Z,31.93
2023-05-05T10:41:38.242Z,30.82
2023-05-05T10:44:07.110Z,30.07
2023-05-05T10:46:35.373Z,30.72
2023-05-05T10:49:03.561Z,29.02
2023-05-05T10:51:48.452Z,27.58
2023-05-05T10:54:31.075Z,28.03
2023-05-05T10:57:02.789Z,28.34
2023-05-05T10:59:37.091Z,27.11
2023-05-05T11:02:25.684Z,26.89
2023-05-05T11:05:15.408Z,26.94
2023-05-05T11:07:45.552Z,26.80
2023-05-05T11:10:15.195Z,26.80
2023-05-05T11:13:06.995Z,25.59
2023-05-05T11:15:37.959Z,24.72
2023-05-05T11:18:08.210Z,24.79
2023-05-05T11:20:40.203Z,24.40
2023-05-05T11:23:08.278Z,24.76
2023-05-05T11:25:37.080Z,25.35
2023-05-05T11:28:16.534Z,24.40
2023-05-05T11:31:04.761Z,23.66
2023-05-05T11:33:34.145Z,23.41
2023-05-05T11:36:07.328Z,22.53
2023-05-05T11:38:42.365Z,22.55
2023-05-05T11:41:10.449Z,22.95
2023-05-05T11:43:39.325Z,22.63
2023-05-05T11:46:15.263Z,20.73
2023-05-05T11:48:52.936Z,20.96
2023-05-05T11:51:22.393Z,21.53
2023-05-05T11:53:51.067Z,21.36
2023-05-05T11:56:20.685Z,21.23
2023-05-05T11:58:50.040Z,20.42
2023-05-05T12:01:18.337Z,20.01
2023-05-05T12:03:46.754Z,20.10
2023-05-05T12:06:15.091Z,20.16
2023-05-05T12:08:43.263Z,20.28
2023-05-05T12:11:11.849Z,19.75
2023-05-05T12:13:40.028Z,19.54
2023-05-05T12:16:15.457Z,19.90
2023-05-05T12:18:43.586Z,20.31
2023-05-05T12:21:18.524Z,18.09
2023-05-05T12:23:47.054Z,18.54
2023-05-05T12:26:32.126Z,17.23
2023-05-05T12:29:01.016Z,17.38
2023-05-05T12:31:36.475Z,17.48
2023-05-05T12:34:06.471Z,17.80
2023-05-05T12:36:35.151Z,17.41
2023-05-05T12:39:05.442Z,16.57
2023-05-05T12:41:34.326Z,16.86
2023-05-05T12:44:05.404Z,16.62
2023-05-05T12:46:45.784Z,16.37
2023-05-05T12:49:14.337Z,16.28
2023-05-05T12:51:56.439Z,15.55
2023-05-05T12:54:25.362Z,16.13
2023-05-05T12:56:53.502Z,15.92
2023-05-05T12:59:21.675Z,16.87
2023-05-05T13:01:51.050Z,16.37
2023-05-05T13:04:21.511Z,16.92
2023-05-05T13:06:56.643Z,16.59
2023-05-05T13:09:26.643Z,16.97
2023-05-05T13:11:55.132Z,16.36
2023-05-05T13:14:23.821Z,16.41
2023-05-05T13:16:53.214Z,16.55
2023-05-05T13:19:21.389Z,16.74
2023-05-05T13:21:49.681Z,16.94
2023-05-05T13:26:49.691Z,17.57
2023-05-05T13:29:18.188Z,17.20
2023-05-05T13:31:46.425Z,17.51
2023-05-05T13:34:14.732Z,17.61
2023-05-05T13:36:42.792Z,17.55
2023-05-05T13:39:11.502Z,17.76
2023-05-05T13:41:39.859Z,17.87
2023-05-05T13:44:08.033Z,18.99
2023-05-05T13:46:36.335Z,19.88
2023-05-05T13:49:04.569Z,20.25
2023-05-05T13:51:35.135Z,20.16
2023-05-05T13:54:03.383Z,20.62
2023-05-05T13:56:31.755Z,21.03
2023-05-05T13:59:00.036Z,21.23
2023-05-05T14:01:28.482Z,21.75
2023-05-05T14:03:57.746Z,21.64
2023-05-05T14:06:26.535Z,21.25
2023-05-05T14:08:54.762Z,21.98
2023-05-05T14:11:23.022Z,22.69
2023-05-05T14:13:52.113Z,23.39
2023-05-05T14:16:20.381Z,23.73
2023-05-05T14:18:48.584Z,22.89
2023-05-05T14:21:16.963Z,23.04
2023-05-05T14:23:45.552Z,23.54
2023-05-05T14:26:13.712Z,23.31
2023-05-05T14:28:42.599Z,22.68
2023-05-05T14:31:11.400Z,22.62
2023-05-05T14:33:39.560Z,22.68
2023-05-05T14:36:08.353Z,22.87
2023-05-05T14:38:36.655Z,22.81
2023-05-05T14:41:05.298Z,23.01
2023-05-05T14:43:33.397Z,23.20
2023-05-05T14:46:06.828Z,23.82
2023-05-05T14:48:35.660Z,23.86
2023-05-05T14:51:04.849Z,24.46
2023-05-05T14:53:33.232Z,25.20
2023-05-05T14:56:02.711Z,25.43
2023-05-05T14:58:31.254Z,25.67
2023-05-05T15:01:00.724Z,25.68
2023-05-05T15:03:28.973Z,25.20
2023-05-05T15:05:57.368Z,24.83
2023-05-05T15:08:25.650Z,24.96
2023-05-05T15:10:53.920Z,25.03
2023-05-05T15:13:22.186Z,24.89
2023-05-05T15:15:51.484Z,25.60
2023-05-05T15:18:19.663Z,25.73
2023-05-05T15:20:47.749Z,25.85
2023-05-05T15:23:16.315Z,26.30
2023-05-05T15:25:44.489Z,26.49
2023-05-05T15:28:12.663Z,26.65
2023-05-05T15:30:40.827Z,27.19
2023-05-05T15:33:08.894Z,27.66
2023-05-05T15:35:37.070Z,28.01
2023-05-05T15:38:05.138Z,28.36
2023-05-05T15:40:33.316Z,28.20
2023-05-05T15:43:01.691Z,28.64
2023-05-05T15:45:29.860Z,28.85
2023-05-05T15:47:58.068Z,28.87
2023-05-05T15:50:26.206Z,28.94
2023-05-05T15:52:57.114Z,29.02
2023-05-05T15:55:26.039Z,29.19
2023-05-05T15:57:54.631Z,29.30
2023-05-05T16:00:22.802Z,29.50
2023-05-05T16:02:51.015Z,29.81
2023-05-05T16:05:21.353Z,29.92
2023-05-05T16:07:52.112Z,30.06
2023-05-05T16:10:20.595Z,30.39
2023-05-05T16:12:48.975Z,30.92
2023-05-05T16:15:17.160Z,30.93
2023-05-05T16:17:45.268Z,30.74
2023-05-05T16:20:14.176Z,31.41
2023-05-05T16:22:42.484Z,31.18
2023-05-05T16:25:11.353Z,30.81
2023-05-05T16:27:39.645Z,31.02
2023-05-05T16:30:09.060Z,31.21
2023-05-05T16:32:37.123Z,31.49
2023-05-05T16:35:07.442Z,31.47
2023-05-05T16:37:35.925Z,31.69
2023-05-05T16:40:05.631Z,32.34
2023-05-05T16:42:33.724Z,32.28
2023-05-05T16:45:02.068Z,32.59
2023-05-05T16:47:30.301Z,33.10
2023-05-05T16:49:58.624Z,33.11
2023-05-05T16:52:26.903Z,33.66
2023-05-05T16:54:56.819Z,34.09
2023-05-05T16:57:24.877Z,33.99
2023-05-05T16:59:55.812Z,33.61
2023-05-05T17:02:23.936Z,34.69
2023-05-05T17:04:52.873Z,35.17
2023-05-05T17:07:21.560Z,35.55
2023-05-05T17:09:49.614Z,35.87
2023-05-05T17:12:17.917Z,35.72
2023-05-05T17:14:46.206Z,36.11
2023-05-05T17:17:14.561Z,36.19
2023-05-05T17:19:42.947Z,36.52
2023-05-05T17:22:11.104Z,37.04
2023-05-05T17:24:39.177Z,37.29
2023-05-05T17:27:07.376Z,38.29
2023-05-05T17:29:40.868Z,38.80
2023-05-05T17:32:09.413Z,39.51
2023-05-05T17:34:37.907Z,39.35
2023-05-05T17:37:06.078Z,39.75
2023-05-05T17:39:34.712Z,39.95
2023-05-05T17:42:03.065Z,41.34
2023-05-05T17:44:32.749Z,40.68
2023-05-05T17:47:02.861Z,41.32
2023-05-05T17:49:31.344Z,42.57
2023-05-05T17:51:59.547Z,42.72
2023-05-05T17:54:27.689Z,43.30
2023-05-05T17:56:55.772Z,43.99
2023-05-05T17:59:23.835Z,43.97
2023-05-05T18:01:52.006Z,44.35
2023-05-05T18:04:20.080Z,44.74
2023-05-05T18:06:48.466Z,44.77
2023-05-05T18:09:17.445Z,45.49
2023-05-05T18:11:45.717Z,45.57
2023-05-05T18:14:13.806Z,46.00
2023-05-05T18:16:47.766Z,46.71
2023-05-05T18:19:16.994Z,46.17
2023-05-05T18:21:45.165Z,46.77
2023-05-05T18:24:20.000Z,46.93
2023-05-05T18:26:50.723Z,47.74
2023-05-05T18:29:20.234Z,47.35
2023-05-05T18:31:53.132Z,48.19
2023-05-05T18:34:21.521Z,47.74
2023-05-05T18:36:51.381Z,48.13
2023-05-05T18:39:20.435Z,48.17
2023-05-05T18:41:48.570Z,48.71
2023-05-05T18:44:16.733Z,49.19
2023-05-05T18:46:47.057Z,49.66
2023-05-05T18:49:15.644Z,49.38
2023-05-05T18:51:44.233Z,49.67
2023-05-05T18:54:12.395Z,49.87
2023-05-05T18:56:40.876Z,49.35
2023-05-05T18:59:08.952Z,50.25
2023-05-05T19:01:37.145Z,49.98
2023-05-05T19:06:53.637Z,51.26
2023-05-05T19:09:22.012Z,51.27
2023-05-05T19:11:50.083Z,51.88
2023-05-05T19:14:18.254Z,51.18
2023-05-05T19:16:46.456Z,52.07
2023-05-05T19:19:14.702Z,52.25
2023-05-05T19:21:42.874Z,52.57
2023-05-05T19:24:11.797Z,52.64
2023-05-05T19:26:40.058Z,53.01
2023-05-05T19:29:08.307Z,52.78
2023-05-05T19:31:36.834Z,53.41
2023-05-05T19:34:05.474Z,52.64
2023-05-05T19:36:34.788Z,53.73
2023-05-05T19:39:04.179Z,53.95
2023-05-05T19:41:32.862Z,53.91
2023-05-05T19:44:01.028Z,54.37
2023-05-05T19:46:29.330Z,54.55
2023-05-05T19:48:57.577Z,54.52
2023-05-05T19:51:26.362Z,54.73
2023-05-05T19:53:54.433Z,54.66
2023-05-05T19:56:23.321Z,54.61
2023-05-05T19:59:06.474Z,54.36
2023-05-05T20:01:35.436Z,55.28
2023-05-05T20:04:03.981Z,55.37
2023-05-05T20:06:33.124Z,55.77
2023-05-05T20:09:02.105Z,55.64
2023-05-05T20:11:30.579Z,55.91
2023-05-05T20:13:59.174Z,55.65
2023-05-05T20:16:27.475Z,55.88
2023-05-05T20:18:56.003Z,56.04
2023-05-05T20:21:24.089Z,56.40
2023-05-05T20:23:54.665Z,55.97
2023-05-05T20:26:24.600Z,56.14
2023-05-05T20:28:53.034Z,56.48
2023-05-05T20:31:21.368Z,56.01
2023-05-05T20:33:49.682Z,57.13
2023-05-05T20:36:18.255Z,56.66
2023-05-05T20:38:46.421Z,57.00
2023-05-05T20:41:14.597Z,56.65
2023-05-05T20:43:42.871Z,57.16
2023-05-05T20:46:13.893Z,57.36
2023-05-05T20:48:42.942Z,57.59
2023-05-05T20:51:11.508Z,57.57
2023-05-05T20:53:39.683Z,57.56
2023-05-05T20:56:08.789Z,57.68
2023-05-05T20:58:37.348Z,58.08
2023-05-05T21:01:05.551Z,58.05
2023-05-05T21:03:33.781Z,57.81
2023-05-05T21:06:02.156Z,58.33
2023-05-05T21:08:30.840Z,57.72
2023-05-05T21:10:58.907Z,58.21
2023-05-05T21:13:28.100Z,58.06
2023-05-05T21:15:56.278Z,58.68
2023-05-05T21:18:26.083Z,58.53
2023-05-05T21:20:54.365Z,58.50
2023-05-05T21:23:22.527Z,58.65
2023-05-05T21:25:50.805Z,58.84
2023-05-05T21:28:18.977Z,58.68
2023-05-05T21:30:59.411Z,59.32
2023-05-05T21:33:35.395Z,59.46
2023-05-05T21:36:04.059Z,59.62
2023-05-05T21:38:32.147Z,59.75
2023-05-05T21:41:00.529Z,59.84
2023-05-05T21:43:29.006Z,59.57
2023-05-05T21:46:01.024Z,59.79
2023-05-05T21:48:29.459Z,60.21
2023-05-05T21:50:57.824Z,60.10
2023-05-05T21:53:25.998Z,60.14
2023-05-05T21:55:54.177Z,59.96
2023-05-05T21:58:25.046Z,60.18
2023-05-05T22:00:53.381Z,60.10
2023-05-05T22:03:21.718Z,60.50
2023-05-05T22:05:49.828Z,60.57
2023-05-05T22:08:19.231Z,60.90
2023-05-05T22:10:47.812Z,60.86
2023-05-05T22:13:16.168Z,60.90
2023-05-05T22:15:47.176Z,61.02
2023-05-05T22:18:16.117Z,60.91
2023-05-05T22:20:44.387Z,61.10
2023-05-05T22:23:14.166Z,60.92
2023-05-05T22:25:42.379Z,61.00
2023-05-05T22:28:11.673Z,61.08
2023-05-05T22:30:39.842Z,61.47
2023-05-05T22:33:08.197Z,61.39
2023-05-05T22:35:37.824Z,61.49
2023-05-05T22:38:06.720Z,61.81
2023-05-05T22:40:36.013Z,62.08
2023-05-05T22:43:04.199Z,63.19
2023-05-05T22:45:33.174Z,63.55
2023-05-05T22:48:01.411Z,63.14
2023-05-05T22:50:29.627Z,60.17
2023-05-05T22:52:57.697Z,58.74
2023-05-05T22:55:26.172Z,58.20
2023-05-05T22:57:54.452Z,57.91
2023-05-05T23:00:22.930Z,58.96
2023-05-05T23:02:51.136Z,59.54
2023-05-05T23:05:19.375Z,59.88
2023-05-05T23:07:47.557Z,59.80
2023-05-05T23:10:15.823Z,60.41
2023-05-05T23:12:44.026Z,61.13
2023-05-05T23:15:12.405Z,60.97
2023-05-05T23:17:40.864Z,60.88
2023-05-05T23:20:12.093Z,61.18
2023-05-05T23:22:40.176Z,61.53
2023-05-05T23:25:09.257Z,62.74
2023-05-05T23:27:39.627Z,63.80
2023-05-05T23:30:09.139Z,63.05
2023-05-05T23:32:37.670Z,62.29
2023-05-05T23:35:06.815Z,61.17
2023-05-05T23:37:35.041Z,60.85
2023-05-05T23:40:03.411Z,59.25
2023-05-05T23:42:31.587Z,58.25
2023-05-05T23:44:59.763Z,58.37
2023-05-05T23:47:27.846Z,58.84
2023-05-05T23:49:56.104Z,59.14
2023-05-05T23:52:24.400Z,59.57
2023-05-05T23:54:52.558Z,60.58
2023-05-05T23:57:20.921Z,61.02
2023-05-05T23:59:49.095Z,61.40
